Time;durP1;ratioP1;P1;durP2;ratioP2;P2;SDS_P1;SDS_P2;PMS_P1;PMS_P2;Temp;Humidity;BMP_temperature;BMP_pressure;BME280_temperature;BME280_humidity;BME280_pressure;Samples;Min_cycle;Max_cycle;Signal;HPM_P1;HPM_P2
2021/11/12 00:12:36;;;;;;;50.58;25.77;;;;;;;4.21;72.15;100700.31;5051466;28;20039;-47
2021/11/12 00:15:03;;;;;;;39.85;23.73;;;;;;;4.41;72.70;100701.13;5051683;28;20439;-47
2021/11/12 00:17:32;;;;;;;47.72;25.27;;;;;;;4.42;71.98;100704.59;5051506;28;20372;-47
2021/11/12 00:19:57;;;;;;;49.65;25.75;;;;;;;4.20;72.66;100700.44;5051633;28;20025;-48
2021/11/12 00:22:23;;;;;;;49.78;24.77;;;;;;;4.19;72.10;100698.75;5051416;28;20029;-48
2021/11/12 00:24:51;;;;;;;47.10;25.77;;;;;;;3.93;73.54;100688.78;5050874;28;20480;-47
2021/11/12 00:27:17;;;;;;;48.70;24.60;;;;;;;4.05;76.02;100695.56;5051129;28;20091;-47
2021/11/12 00:29:56;;;;;;;45.40;24.08;;;;;;;4.12;72.69;100690.59;5051454;28;20045;-47
2021/11/12 00:32:39;;;;;;;49.85;23.77;;;;;;;4.05;72.70;100694.75;5051438;28;20365;-48
2021/11/12 00:36:16;;;;;;;43.38;23.45;;;;;;;4.24;72.75;100686.84;5051153;28;20045;-47
2021/11/12 00:40:33;;;;;;;41.45;22.60;;;;;;;4.01;73.26;100683.66;5051201;28;20029;-47
2021/11/12 00:45:28;;;;;;;53.17;25.42;;;;;;;4.28;70.97;100684.75;5050667;28;20039;-47
2021/11/12 00:55:14;;;;;;;51.63;26.45;;;;;;;3.88;73.49;100672.56;5050567;28;20098;-47
2021/11/12 00:57:40;;;;;;;52.97;26.75;;;;;;;4.17;72.87;100669.09;5050199;28;20516;-47
2021/11/12 01:00:06;;;;;;;51.75;26.20;;;;;;;4.14;72.59;100667.56;5050542;28;20033;-47
2021/11/12 01:02:32;;;;;;;45.97;24.77;;;;;;;4.08;72.25;100662.88;5050648;28;20389;-48
2021/11/12 01:04:58;;;;;;;46.58;25.17;;;;;;;4.26;71.82;100666.44;5050048;28;20040;-48
2021/11/12 01:07:23;;;;;;;52.83;26.58;;;;;;;4.08;72.64;100661.06;5050373;28;20082;-47
2021/11/12 01:09:50;;;;;;;51.60;26.08;;;;;;;3.95;73.08;100660.50;5050345;28;20086;-48
2021/11/12 01:12:16;;;;;;;53.58;27.38;;;;;;;3.98;72.61;100657.59;5049793;28;20029;-51
2021/11/12 01:14:41;;;;;;;52.05;27.90;;;;;;;4.02;72.40;100659.00;5049944;28;20139;-51
2021/11/12 01:17:07;;;;;;;52.38;26.95;;;;;;;4.17;71.82;100651.50;5049432;28;20126;-50
2021/11/12 01:19:32;;;;;;;46.53;24.85;;;;;;;4.23;71.50;100645.66;5049426;28;20059;-50
2021/11/12 01:21:58;;;;;;;44.47;25.00;;;;;;;4.15;71.92;100645.53;5049790;28;20075;-50
2021/11/12 01:24:23;;;;;;;49.80;24.90;;;;;;;4.17;71.76;100646.22;5050767;28;20698;-49
2021/11/12 01:26:49;;;;;;;45.40;24.27;;;;;;;4.09;72.32;100649.56;5050324;28;20463;-50
2021/11/12 01:29:14;;;;;;;49.72;24.25;;;;;;;3.87;72.98;100641.94;5050035;28;20033;-48
2021/11/12 01:31:40;;;;;;;47.58;25.55;;;;;;;3.79;73.20;100641.78;5050272;28;20075;-47
2021/11/12 01:34:10;;;;;;;47.65;24.98;;;;;;;3.81;73.57;100637.19;5049913;28;20374;-47
2021/11/12 01:36:39;;;;;;;48.13;25.08;;;;;;;4.01;72.60;100633.59;5049543;28;20029;-50
2021/11/12 01:39:09;;;;;;;46.72;24.90;;;;;;;4.03;71.99;100629.03;5050906;28;20044;-48
2021/11/12 01:41:36;;;;;;;46.97;24.52;;;;;;;4.14;72.09;100628.06;5050713;28;20029;-47
2021/11/12 01:44:05;;;;;;;46.30;24.42;;;;;;;3.84;72.42;100636.94;5050398;28;20029;-48
2021/11/12 01:46:38;;;;;;;44.25;23.63;;;;;;;4.06;72.23;100627.94;5050510;28;20064;-52
2021/11/12 01:51:46;;;;;;;41.72;23.95;;;;;;;4.03;72.22;100622.94;5050466;28;20499;-51
2021/11/12 01:59:18;;;;;;;43.33;22.50;;;;;;;3.78;73.33;100624.31;5049409;28;20039;-49
2021/11/12 02:01:46;;;;;;;42.50;22.67;;;;;;;3.71;72.59;100622.25;5050368;28;20025;-49
2021/11/12 02:04:17;;;;;;;44.08;24.17;;;;;;;3.63;74.29;100621.25;5050085;28;20096;-49
2021/11/12 02:06:42;;;;;;;42.90;22.42;;;;;;;3.27;74.74;100611.22;5050248;28;20036;-51
2021/11/12 02:09:14;;;;;;;39.88;22.58;;;;;;;3.56;73.68;100620.13;5048930;28;20021;-50
2021/11/12 02:11:41;;;;;;;39.17;21.45;;;;;;;3.61;73.19;100613.50;5050293;28;20122;-49
2021/11/12 02:14:07;;;;;;;43.13;21.27;;;;;;;3.75;73.21;100620.19;5049835;28;20519;-48
2021/11/12 02:16:37;;;;;;;38.03;21.85;;;;;;;3.64;73.73;100610.59;5050035;28;20021;-48
2021/11/12 02:19:04;;;;;;;40.30;21.65;;;;;;;3.69;74.32;100612.81;5048371;28;20025;-51
2021/11/12 02:21:40;;;;;;;34.65;20.27;;;;;;;3.71;74.21;100611.72;5049953;28;20029;-49
2021/11/12 02:24:11;;;;;;;39.15;20.50;;;;;;;3.88;73.26;100604.94;5049784;28;20531;-51
2021/11/12 02:26:43;;;;;;;38.95;20.75;;;;;;;3.80;72.83;100610.03;5049603;28;20334;-49
2021/11/12 02:29:10;;;;;;;35.10;19.50;;;;;;;3.78;72.99;100609.34;5049658;28;20419;-51
2021/11/12 02:31:35;;;;;;;40.15;20.38;;;;;;;3.69;73.36;100612.81;5049470;28;20396;-48
2021/11/12 02:34:10;;;;;;;36.28;19.80;;;;;;;3.70;73.27;100612.66;5049602;28;20049;-48
2021/11/12 02:36:36;;;;;;;38.30;20.80;;;;;;;3.44;74.67;100611.53;5049572;28;20066;-48
2021/11/12 02:39:03;;;;;;;38.70;21.20;;;;;;;3.61;73.55;100610.03;5049669;28;20025;-49
2021/11/12 02:41:29;;;;;;;40.60;21.30;;;;;;;3.63;73.12;100608.09;5049437;28;20033;-48
2021/11/12 02:43:54;;;;;;;39.03;20.10;;;;;;;3.63;73.29;100605.47;5049052;28;20473;-49
2021/11/12 02:46:22;;;;;;;30.95;18.95;;;;;;;3.55;73.71;100600.06;5042111;28;20068;-48
2021/11/12 02:48:47;;;;;;;36.20;20.20;;;;;;;3.71;73.08;100600.34;5043937;28;20057;-50
2021/11/12 02:51:17;;;;;;;41.58;21.23;;;;;;;3.53;73.81;100597.56;5054894;28;20425;-50
2021/11/12 02:53:43;;;;;;;40.25;20.38;;;;;;;3.67;73.56;100591.88;5056018;28;20045;-49
2021/11/12 02:56:14;;;;;;;37.20;19.67;;;;;;;3.60;74.19;100595.19;5056241;28;20029;-49
2021/11/12 02:58:40;;;;;;;38.42;19.42;;;;;;;3.34;74.21;100587.84;5056113;28;20119;-49
2021/11/12 03:01:06;;;;;;;34.60;19.85;;;;;;;3.28;74.88;100585.75;5055832;28;20523;-50
2021/11/12 03:03:32;;;;;;;35.85;19.20;;;;;;;3.14;74.65;100584.31;5055140;28;20385;-49
2021/11/12 03:05:57;;;;;;;32.05;18.33;;;;;;;3.19;74.72;100581.31;5056104;28;20505;-48
2021/11/12 03:08:23;;;;;;;37.28;19.05;;;;;;;3.31;75.14;100582.84;5054885;28;20033;-50
2021/11/12 03:10:55;;;;;;;34.30;18.95;;;;;;;3.13;74.58;100572.97;5056219;28;20032;-51
2021/11/12 03:13:21;;;;;;;32.95;18.20;;;;;;;3.25;74.41;100570.22;5056014;28;20116;-50
2021/11/12 03:15:46;;;;;;;38.15;19.15;;;;;;;3.21;74.70;100571.47;5056128;28;20099;-49
2021/11/12 03:18:12;;;;;;;33.55;17.45;;;;;;;3.23;75.10;100569.53;5056089;28;20030;-52
2021/11/12 03:20:38;;;;;;;30.65;16.67;;;;;;;3.36;75.00;100575.38;5056020;28;20044;-49
2021/11/12 03:23:13;;;;;;;33.90;18.40;;;;;;;3.49;73.85;100565.41;5054451;28;20052;-52
2021/11/12 03:26:02;;;;;;;33.70;18.65;;;;;;;3.29;74.15;100561.09;5056168;28;20453;-48
2021/11/12 05:51:25;;;;;;;30.85;16.17;;;;;;;4.16;73.04;100533.06;5048011;28;20036;-50
2021/11/12 05:56:35;;;;;;;27.73;14.90;;;;;;;4.75;70.53;100536.34;5047683;28;20036;-51
2021/11/12 05:59:00;;;;;;;24.83;14.68;;;;;;;5.06;68.40;100527.16;5047764;28;20200;-51
2021/11/12 06:01:26;;;;;;;22.88;13.45;;;;;;;5.03;68.03;100531.88;5048180;28;20027;-49
2021/11/12 06:03:52;;;;;;;97.68;48.05;;;;;;;5.09;68.63;100533.94;5048480;28;20021;-49
2021/11/12 06:06:17;;;;;;;28.92;18.10;;;;;;;5.29;67.80;100534.59;5048343;28;20086;-51
2021/11/12 06:08:42;;;;;;;27.42;14.60;;;;;;;5.23;67.13;100538.69;5047989;28;20017;-49
2021/11/12 06:11:08;;;;;;;30.38;15.57;;;;;;;5.66;69.76;100534.47;5049260;28;20032;-50
2021/11/12 06:13:34;;;;;;;26.23;14.73;;;;;;;6.34;68.36;100534.81;5049174;28;20327;-49
2021/11/12 06:15:59;;;;;;;29.48;14.50;;;;;;;6.55;66.13;100503.53;5048811;28;20021;-49
2021/11/12 06:18:25;;;;;;;21.95;13.95;;;;;;;7.01;62.72;100533.13;5049014;28;20035;-52
2021/11/12 06:20:50;;;;;;;23.67;14.70;;;;;;;7.22;62.69;100531.88;5049010;28;20032;-53
2021/11/12 06:23:16;;;;;;;24.13;13.68;;;;;;;6.82;61.27;100528.94;5048176;28;20021;-51
2021/11/12 06:25:42;;;;;;;26.15;14.18;;;;;;;6.81;61.51;100526.44;5049562;28;20109;-51
2021/11/12 06:28:07;;;;;;;22.38;13.35;;;;;;;6.83;60.56;100527.97;5048720;28;20021;-49
2021/11/12 06:30:33;;;;;;;25.30;13.90;;;;;;;7.11;60.26;100519.75;5048519;28;20020;-49
2021/11/12 06:32:58;;;;;;;37.30;20.45;;;;;;;7.10;60.76;100527.84;5048735;28;20025;-50
2021/11/12 06:35:24;;;;;;;56.60;33.55;;;;;;;7.25;60.52;100518.28;5048926;28;20052;-38
2021/11/12 06:37:49;;;;;;;25.35;13.98;;;;;;;7.36;59.25;100520.63;5049346;28;20025;-38
2021/11/12 06:40:19;;;;;;;26.77;13.90;;;;;;;7.57;58.85;100520.16;5049296;28;20483;-38
2021/11/12 06:43:00;;;;;;;24.95;13.50;;;;;;;8.13;57.64;100525.59;5049367;28;20028;-37
2021/11/12 06:50:36;;;;;;;23.02;13.02;;;;;;;8.30;56.33;100520.25;5048289;28;20090;-38
2021/11/12 06:53:01;;;;;;;23.70;14.45;;;;;;;8.51;55.79;100517.91;5047310;28;20481;-38
2021/11/12 06:55:27;;;;;;;21.23;13.82;;;;;;;8.77;55.00;100519.47;5049228;28;20013;-38
2021/11/12 06:57:53;;;;;;;21.42;13.27;;;;;;;8.81;54.91;100518.09;5048834;28;20049;-38
2021/11/12 07:00:20;;;;;;;22.60;14.07;;;;;;;8.89;54.32;100514.59;5048917;28;20452;-38
2021/11/12 07:02:45;;;;;;;26.08;13.55;;;;;;;9.33;57.18;100506.06;5049006;28;20021;-38
2021/11/12 07:05:11;;;;;;;22.27;12.98;;;;;;;9.82;56.38;100510.97;5048831;28;20100;-38
2021/11/12 07:07:37;;;;;;;22.77;12.25;;;;;;;9.56;52.46;100498.91;5049348;28;20032;-38
2021/11/12 07:10:03;;;;;;;22.75;12.32;;;;;;;9.96;50.72;100496.06;5049586;28;20139;-38
2021/11/12 07:12:29;;;;;;;19.27;11.45;;;;;;;9.97;50.42;100492.38;5049306;28;20021;-37
2021/11/12 07:14:54;;;;;;;18.88;12.73;;;;;;;9.56;50.54;100490.94;5048261;28;20079;-37
2021/11/12 07:17:20;;;;;;;21.35;12.57;;;;;;;9.71;51.28;100493.63;5048383;28;20428;-37
2021/11/12 07:19:45;;;;;;;24.23;14.60;;;;;;;10.72;48.91;100491.41;5048508;28;20113;-38
2021/11/12 07:22:11;;;;;;;23.85;13.48;;;;;;;10.91;48.31;100487.34;5049110;28;20448;-37
2021/11/12 07:24:37;;;;;;;20.85;13.10;;;;;;;10.73;48.33;100482.41;5049081;28;20468;-37
2021/11/12 07:27:02;;;;;;;19.63;12.75;;;;;;;10.94;47.81;100483.47;5049118;28;20098;-38
2021/11/12 07:29:30;;;;;;;25.20;12.93;;;;;;;10.54;48.66;100475.00;5048936;28;20020;-48
2021/11/12 07:31:56;;;;;;;23.77;13.10;;;;;;;10.57;48.89;100475.47;5047989;28;20043;-48
2021/11/12 07:34:25;;;;;;;21.23;12.23;;;;;;;10.69;48.98;100477.66;5047811;28;20064;-51
2021/11/12 07:36:54;;;;;;;20.15;12.60;;;;;;;10.74;48.71;100468.09;5051131;28;20028;-49
2021/11/12 07:47:09;;;;;;;21.80;12.95;;;;;;;11.18;47.15;100466.31;5052004;28;20843;-48
2021/11/12 07:49:36;;;;;;;39.38;25.05;;;;;;;10.98;48.25;100467.94;5051885;28;20075;-47
2021/11/12 07:52:02;;;;;;;22.50;13.77;;;;;;;11.03;47.26;100470.88;5051909;28;20041;-48
2021/11/12 07:54:28;;;;;;;23.65;13.77;;;;;;;11.02;47.11;100469.22;5051666;28;20120;-47
2021/11/12 07:56:53;;;;;;;21.73;12.65;;;;;;;11.33;46.65;100472.41;5051825;28;20044;-49
2021/11/12 07:59:19;;;;;;;25.50;12.57;;;;;;;11.37;46.25;100464.03;5051695;28;20275;-48
2021/11/12 08:01:44;;;;;;;21.15;13.30;;;;;;;11.48;45.74;100468.81;5052029;28;20021;-49
2021/11/12 08:04:10;;;;;;;21.73;13.10;;;;;;;11.47;45.93;100467.19;5051966;28;20029;-48
2021/11/12 08:06:36;;;;;;;23.55;13.00;;;;;;;11.59;46.47;100464.84;5051623;28;20017;-49
2021/11/12 08:09:08;;;;;;;19.92;12.98;;;;;;;11.73;45.50;100469.25;5051632;28;20025;-50
2021/11/12 08:11:37;;;;;;;20.90;12.68;;;;;;;11.84;44.34;100465.22;5051625;28;20082;-50
2021/11/12 08:19:07;;;;;;;19.92;11.90;;;;;;;11.91;44.48;100463.47;5050076;28;20059;-50
2021/11/12 08:26:59;;;;;;;24.90;12.13;;;;;;;12.33;43.61;100448.31;5053027;28;20082;-49
2021/11/12 08:35:00;;;;;;;19.38;12.18;;;;;;;12.27;43.69;100443.78;5038543;28;20049;-49
2021/11/12 08:42:25;;;;;;;19.23;12.73;;;;;;;12.21;44.39;100444.59;5054405;28;20067;-48
2021/11/12 08:47:56;;;;;;;20.05;12.07;;;;;;;12.58;43.47;100448.63;5055262;28;20098;-49
2021/11/12 08:50:23;;;;;;;;;;;;;;;12.41;42.93;100442.81;5067162;28;20496;-49
2021/11/12 08:52:51;;;;;;;22.35;12.27;;;;;;;12.50;42.99;100443.47;5054410;28;20060;-49
2021/11/12 08:55:23;;;;;;;22.17;12.00;;;;;;;12.55;43.29;100443.72;5063040;28;20024;-48
2021/11/12 08:57:49;;;;;;;17.35;12.27;;;;;;;12.35;43.63;100440.13;5062706;28;20020;-49
2021/11/12 09:00:15;;;;;;;18.73;12.13;;;;;;;12.32;43.83;100436.84;5054793;28;20025;-51
2021/11/12 09:02:40;;;;;;;19.23;11.70;;;;;;;12.63;43.35;100434.69;5066910;28;20028;-49
2021/11/12 09:05:06;;;;;;;17.88;11.88;;;;;;;12.93;43.07;100421.84;5056317;28;20021;-47
2021/11/12 09:07:32;;;;;;;25.77;12.27;;;;;;;13.01;42.59;100404.81;5060399;28;20028;-48
2021/11/12 09:09:57;;;;;;;19.67;11.68;;;;;;;13.15;42.02;100427.00;5063586;28;20437;-49
2021/11/12 09:12:25;;;;;;;18.35;11.65;;;;;;;12.73;43.21;100419.13;5053489;28;20032;-47
2021/11/12 09:14:52;;;;;;;20.77;12.18;;;;;;;12.91;42.85;100422.06;5066019;28;20025;-50
2021/11/12 09:17:19;;;;;;;24.60;12.18;;;;;;;13.31;42.19;100418.66;5058092;28;20547;-48
2021/11/12 09:19:52;;;;;;;19.52;11.98;;;;;;;13.20;42.34;100416.56;5058817;28;20036;-48
2021/11/12 09:22:22;;;;;;;19.27;12.02;;;;;;;12.90;43.10;100411.56;5066349;28;20454;-47
2021/11/12 09:24:48;;;;;;;21.25;11.60;;;;;;;12.86;42.76;100408.47;5037442;28;20021;-48
2021/11/12 09:27:14;;;;;;;19.92;12.38;;;;;;;12.91;43.09;100403.34;5062857;28;20021;-53
2021/11/12 09:29:40;;;;;;;18.10;11.93;;;;;;;12.98;42.92;100407.88;5061108;28;20013;-52
2021/11/12 09:32:08;;;;;;;20.73;11.93;;;;;;;13.09;43.21;100404.59;5055434;28;20170;-47
2021/11/12 09:34:34;;;;;;;19.45;11.88;;;;;;;13.15;42.50;100401.09;5065907;28;20481;-47
2021/11/12 09:37:04;;;;;;;21.58;11.88;;;;;;;13.00;42.39;100387.94;5055367;28;20028;-49
2021/11/12 09:39:30;;;;;;;21.95;12.43;;;;;;;12.95;43.09;100384.25;5060333;28;20169;-48
2021/11/12 09:41:56;;;;;;;21.05;12.45;;;;;;;13.16;43.08;100381.38;5062802;28;20088;-48
2021/11/12 09:44:22;;;;;;;19.90;12.07;;;;;;;13.25;42.24;100384.66;5035001;28;20029;-49
2021/11/12 09:46:48;;;;;;;22.50;11.82;;;;;;;13.30;42.49;100377.72;5065706;28;20053;-48
2021/11/12 09:49:13;;;;;;;19.80;11.95;;;;;;;12.85;43.40;100372.13;5055562;28;20086;-47
2021/11/12 09:51:39;;;;;;;18.13;11.65;;;;;;;13.20;42.90;100371.94;5058582;28;20021;-51
2021/11/12 09:54:04;;;;;;;19.80;11.90;;;;;;;13.52;42.81;100371.31;5063281;28;20029;-49
2021/11/12 09:56:31;;;;;;;20.75;12.00;;;;;;;13.48;42.56;100373.63;5053208;28;20354;-49
2021/11/12 09:58:57;;;;;;;20.15;12.20;;;;;;;13.39;43.22;100372.19;5064106;28;20108;-48
2021/11/12 10:01:28;;;;;;;20.50;12.00;;;;;;;13.71;42.36;100367.81;5057584;28;20028;-48
2021/11/12 10:03:54;;;;;;;18.20;12.13;;;;;;;13.55;42.56;100363.72;5055225;28;20029;-48
2021/11/12 10:06:24;;;;;;;21.75;12.32;;;;;;;13.40;42.64;100355.09;5065361;28;20032;-47
2021/11/12 10:08:50;;;;;;;14.82;10.30;;;;;;;13.29;42.72;100351.19;5037227;28;20023;-48
2021/11/12 10:11:30;;;;;;;17.45;10.23;;;;;;;13.40;42.55;100341.72;5061914;28;20433;-50
2021/11/12 10:14:00;;;;;;;13.77;9.27;;;;;;;13.18;42.59;100346.44;5062136;28;20024;-49
2021/11/12 10:16:35;;;;;;;20.83;10.90;;;;;;;13.08;42.62;100346.88;5052623;28;20283;-47
2021/11/12 10:19:10;;;;;;;15.77;10.38;;;;;;;13.09;43.20;100335.94;5063567;28;20063;-49
2021/11/12 10:21:39;;;;;;;16.77;11.00;;;;;;;13.30;42.34;100328.78;5059114;28;20499;-51
2021/11/12 10:24:06;;;;;;;19.13;11.10;;;;;;;13.26;43.23;100328.34;5054332;28;20043;-47
2021/11/12 10:26:33;;;;;;;17.23;11.52;;;;;;;13.42;43.48;100329.81;5064941;28;20055;-47
2021/11/12 10:29:03;;;;;;;24.20;12.00;;;;;;;13.51;42.95;100327.72;5053036;28;20017;-49
2021/11/12 10:31:30;;;;;;;19.73;11.10;;;;;;;13.38;42.85;100307.16;5056094;28;20495;-48
2021/11/12 10:33:56;;;;;;;16.50;9.82;;;;;;;13.45;43.09;100315.19;5044233;28;20052;-48
2021/11/12 10:36:22;;;;;;;16.65;10.70;;;;;;;13.30;43.18;100307.41;5052389;28;20580;-48
2021/11/12 10:38:49;;;;;;;16.92;9.90;;;;;;;13.26;43.92;100308.81;5065028;28;20021;-49
2021/11/12 10:41:24;;;;;;;16.38;10.27;;;;;;;13.02;44.80;100303.09;5056249;28;20458;-48
2021/11/12 10:43:51;;;;;;;20.30;10.35;;;;;;;13.04;44.47;100305.53;5056427;28;20035;-49
2021/11/12 10:46:34;;;;;;;16.30;9.82;;;;;;;13.41;44.07;100300.59;5060750;28;20051;-48
2021/11/12 10:49:22;;;;;;;17.02;10.30;;;;;;;13.54;43.66;100297.91;5034229;28;20044;-48
2021/11/12 10:51:58;;;;;;;15.95;11.32;;;;;;;13.42;44.46;100295.06;5043914;28;20399;-48
2021/11/12 10:54:52;;;;;;;17.60;10.80;;;;;;;13.43;44.91;100286.00;5047711;28;20107;-49
2021/11/12 10:57:23;;;;;;;12.45;8.38;;;;;;;13.46;43.90;100282.91;5046524;28;20556;-49
2021/11/12 10:59:55;;;;;;;29.23;17.65;;;;;;;13.20;45.89;100286.41;5048262;28;20033;-50
2021/11/12 11:02:25;;;;;;;12.18;7.68;;;;;;;13.36;44.64;100284.38;5046309;28;20337;-50
2021/11/12 11:04:50;;;;;;;21.13;8.95;;;;;;;13.05;44.75;100280.47;5042595;28;20492;-46
2021/11/12 11:07:17;;;;;;;13.52;9.02;;;;;;;12.95;45.98;100286.22;5050209;28;20032;-48
2021/11/12 11:09:43;;;;;;;10.63;7.78;;;;;;;13.30;45.23;100286.03;5060870;28;20150;-48
2021/11/12 11:12:29;;;;;;;11.13;8.00;;;;;;;13.55;44.95;100282.69;5055703;28;20439;-48
2021/11/12 11:14:55;;;;;;;12.38;8.65;;;;;;;13.75;43.23;100283.44;5041052;28;20029;-49
2021/11/12 11:17:25;;;;;;;16.55;9.85;;;;;;;13.44;43.90;100276.94;5062676;28;20024;-48
2021/11/12 11:19:51;;;;;;;17.23;10.23;;;;;;;13.42;44.92;100270.16;5064883;28;20029;-48
2021/11/12 11:22:17;;;;;;;17.52;9.50;;;;;;;13.45;44.28;100269.75;5056234;28;20079;-48
2021/11/12 11:24:42;;;;;;;16.88;11.10;;;;;;;13.36;44.21;100271.00;5068938;28;20025;-50
2021/11/12 11:27:08;;;;;;;18.25;11.15;;;;;;;13.46;44.07;100271.38;5059228;28;20056;-49
2021/11/12 11:29:33;;;;;;;19.15;11.52;;;;;;;13.69;43.48;100269.06;5062886;28;20025;-48
2021/11/12 11:31:59;;;;;;;18.65;11.80;;;;;;;13.80;43.30;100267.59;5055721;28;20345;-48
2021/11/12 11:34:26;;;;;;;18.65;11.73;;;;;;;13.83;42.85;100269.00;5068687;28;20419;-48
2021/11/12 11:36:56;;;;;;;22.38;10.98;;;;;;;13.75;43.05;100264.72;5056951;28;20107;-49
2021/11/12 11:39:21;;;;;;;17.67;10.52;;;;;;;13.30;44.32;100270.78;5062041;28;20492;-47
2021/11/12 11:41:48;;;;;;;16.27;10.70;;;;;;;13.40;44.33;100258.84;5064250;28;20029;-49
2021/11/12 11:44:15;;;;;;;19.33;10.70;;;;;;;13.39;44.53;100263.38;5056735;28;20108;-48
2021/11/12 11:46:43;;;;;;;18.20;10.10;;;;;;;13.58;44.68;100252.84;5069056;28;20029;-49
2021/11/12 11:49:17;;;;;;;14.95;8.90;;;;;;;14.03;42.20;100244.81;5053109;28;20059;-50
2021/11/12 11:51:54;;;;;;;14.10;9.38;;;;;;;13.97;42.64;100243.81;5036642;28;20107;-48
2021/11/12 11:54:21;;;;;;;13.35;8.65;;;;;;;13.88;42.89;100243.25;5053971;28;20051;-48
2021/11/12 11:57:13;;;;;;;15.05;9.20;;;;;;;14.05;42.68;100242.75;5051683;28;20066;-48
2021/11/12 11:59:40;;;;;;;15.27;10.38;;;;;;;14.11;42.46;100243.75;5053184;28;20485;-48
2021/11/12 12:02:11;;;;;;;12.75;9.13;;;;;;;14.33;41.82;100239.72;5065743;28;20033;-49
2021/11/12 12:04:40;;;;;;;11.20;7.60;;;;;;;14.34;40.24;100237.88;5054705;28;20027;-48
2021/11/12 12:07:17;;;;;;;13.07;7.82;;;;;;;14.40;41.53;100229.78;5064865;28;20483;-48
2021/11/12 12:09:50;;;;;;;14.45;9.50;;;;;;;14.20;41.92;100232.59;5063080;28;20066;-47
2021/11/12 12:12:31;;;;;;;17.90;9.70;;;;;;;13.94;42.95;100238.09;5056004;28;20024;-48
2021/11/12 12:15:07;;;;;;;15.70;8.77;;;;;;;14.03;43.13;100243.00;5041578;28;20404;-48
2021/11/12 12:17:34;;;;;;;14.57;8.90;;;;;;;14.07;44.03;100240.72;5061650;28;20029;-48
2021/11/12 13:22:53;;;;;;;12.57;7.80;;;;;;;13.78;45.68;100224.16;5028194;28;20044;-49
2021/11/12 13:25:39;;;;;;;13.43;7.90;;;;;;;13.80;45.51;100227.47;5029976;28;20025;-50
2021/11/12 13:28:30;;;;;;;15.80;8.88;;;;;;;13.85;45.38;100224.97;5029192;28;20151;-48
2021/11/12 13:31:02;;;;;;;12.38;7.97;;;;;;;13.69;45.01;100230.81;5032273;28;20025;-47
2021/11/12 13:33:29;;;;;;;15.65;8.00;;;;;;;14.00;44.99;100231.91;5050773;28;20052;-48
2021/11/12 13:35:56;;;;;;;14.63;8.40;;;;;;;13.83;44.92;100229.69;5050829;28;20086;-47
2021/11/12 13:38:21;;;;;;;13.05;8.13;;;;;;;13.88;44.83;100224.53;5049390;28;20048;-48
2021/11/12 13:40:47;;;;;;;14.68;8.82;;;;;;;13.85;45.37;100232.16;5048369;28;20025;-49
2021/11/12 13:43:25;;;;;;;13.77;8.48;;;;;;;13.89;44.99;100230.69;5048515;28;20107;-48
2021/11/12 13:45:57;;;;;;;15.65;8.77;;;;;;;13.98;44.47;100236.66;5048415;28;20484;-48
2021/11/12 13:48:23;;;;;;;19.50;10.95;;;;;;;13.78;45.38;100231.38;5048556;28;20035;-48
2021/11/12 13:50:56;;;;;;;16.55;9.70;;;;;;;13.70;45.83;100243.13;5048367;28;20017;-49
2021/11/12 13:53:32;;;;;;;13.10;8.63;;;;;;;13.54;46.56;100236.41;5048265;28;20028;-48
2021/11/12 13:55:58;;;;;;;15.82;8.80;;;;;;;13.58;45.23;100213.56;5049961;28;20479;-49
2021/11/12 13:58:25;;;;;;;12.95;8.38;;;;;;;13.80;45.41;100232.81;5049926;28;20047;-48
2021/11/12 14:00:51;;;;;;;10.93;7.38;;;;;;;13.52;46.29;100229.63;5050286;28;20032;-48
2021/11/12 14:03:21;;;;;;;13.68;8.38;;;;;;;13.72;45.22;100226.88;5049668;28;20096;-50
2021/11/12 14:05:54;;;;;;;15.45;8.95;;;;;;;13.73;45.27;100232.03;5048984;28;20369;-50
2021/11/12 14:08:20;;;;;;;11.80;7.80;;;;;;;13.60;46.10;100235.56;5050016;28;20025;-48
2021/11/12 14:10:53;;;;;;;13.02;8.10;;;;;;;13.65;45.80;100243.78;5049913;28;20052;-48
2021/11/12 14:13:21;;;;;;;13.95;7.80;;;;;;;13.76;45.61;100239.59;5049867;28;20044;-47
2021/11/12 14:19:00;;;;;;;16.50;8.68;;;;;;;13.43;46.31;100237.06;5049830;28;20694;-48
2021/11/12 14:21:35;;;;;;;15.43;8.75;;;;;;;13.32;46.74;100233.16;5049523;28;20040;-50
2021/11/12 14:26:59;;;;;;;15.85;8.40;;;;;;;13.20;46.90;100240.97;5049814;28;20153;-48
2021/11/12 14:43:51;;;;;;;10.82;6.32;;;;;;;12.82;48.10;100236.28;5025398;28;20061;-48
2021/11/12 14:51:31;;;;;;;10.35;6.05;;;;;;;12.79;47.95;100246.56;5048094;28;20407;-50
2021/11/12 14:54:06;;;;;;;13.60;6.47;;;;;;;12.73;48.16;100250.06;5048098;28;20020;-49
2021/11/12 14:56:32;;;;;;;10.60;6.50;;;;;;;12.59;48.89;100247.38;5048620;28;20048;-50
2021/11/12 14:59:00;;;;;;;10.35;6.57;;;;;;;12.34;49.26;100244.50;5048291;28;20481;-50
2021/11/12 15:01:27;;;;;;;15.52;7.70;;;;;;;12.35;49.69;100245.31;5048089;28;20145;-48
2021/11/12 15:03:53;;;;;;;14.77;7.95;;;;;;;12.56;49.43;100246.97;5048221;28;20449;-49
2021/11/12 15:06:21;;;;;;;13.93;7.90;;;;;;;12.48;49.91;100239.97;5047995;28;20035;-56
2021/11/12 15:08:54;;;;;;;12.90;7.70;;;;;;;12.40;49.59;100246.34;5047848;28;20025;-48
2021/11/12 15:11:23;;;;;;;13.95;8.00;;;;;;;12.17;50.74;100248.56;5047976;28;20508;-49
2021/11/12 15:13:50;;;;;;;78.00;43.20;;;;;;;12.19;52.85;100255.31;5047775;28;20021;-50
2021/11/12 15:16:21;;;;;;;17.42;8.65;;;;;;;12.20;50.91;100256.16;5048495;28;20025;-51
2021/11/12 15:18:47;;;;;;;14.98;7.85;;;;;;;12.31;50.72;100261.72;5048167;28;20032;-52
2021/11/12 15:21:21;;;;;;;24.17;9.88;;;;;;;12.17;51.95;100259.22;5048891;28;20112;-51
2021/11/12 15:24:06;;;;;;;28.05;13.25;;;;;;;12.20;51.51;100264.16;5048209;28;20543;-50
2021/11/12 15:29:27;;;;;;;21.90;9.45;;;;;;;11.66;52.55;100273.75;5047755;28;20060;-51
2021/11/12 15:34:20;;;;;;;24.52;10.55;;;;;;;11.29;54.45;100271.31;5047649;28;20462;-48
2021/11/12 15:42:28;;;;;;;24.80;11.27;;;;;;;11.25;55.08;100286.03;5036280;28;20464;-53
2021/11/12 15:45:01;;;;;;;28.52;11.18;;;;;;;11.08;56.29;100284.66;5047768;28;20463;-50
2021/11/12 15:47:30;;;;;;;18.55;10.00;;;;;;;11.05;55.14;100285.06;5042354;28;20033;-50
2021/11/12 15:50:10;;;;;;;24.35;10.57;;;;;;;11.10;55.46;100279.97;5037938;28;20117;-38
2021/11/12 15:52:50;;;;;;;21.85;9.73;;;;;;;11.19;54.61;100278.00;5047370;28;20124;-39
2021/11/12 16:00:50;;;;;;;37.70;19.55;;;;;;;11.09;55.49;100292.47;5037718;28;20114;-37
2021/11/12 16:21:43;;;;;;;35.58;17.55;;;;;;;10.51;58.14;100305.06;5031621;28;20545;-38
2021/11/12 16:25:02;;;;;;;36.70;15.93;;;;;;;11.15;58.43;100306.84;5030448;28;20021;-37
2021/11/12 16:26:59;;;;;;;29.60;15.68;;;;;;;11.00;56.40;100309.59;5030989;28;20040;-38
2021/11/12 16:32:00;;;;;;;33.63;17.13;;;;;;;11.04;57.18;100315.38;5041486;28;20000;-37
2021/11/12 16:34:26;;;;;;;33.75;16.08;;;;;;;10.92;56.87;100317.72;5050959;28;20080;-50
2021/11/12 16:37:00;;;;;;;28.58;15.65;;;;;;;10.52;57.72;100312.03;5051196;28;20037;-52
2021/11/12 16:39:38;;;;;;;36.40;17.08;;;;;;;10.29;60.57;100320.97;5051024;28;20429;-51
2021/11/12 16:44:47;;;;;;;62.28;33.22;;;;;;;10.37;62.54;100318.22;5038084;28;20028;-48
2021/11/12 16:52:46;;;;;;;67.35;27.83;;;;;;;10.06;61.89;100320.28;5050839;28;20052;-51
2021/11/12 17:03:21;;;;;;;57.90;32.25;;;;;;;10.21;59.53;100320.28;5041972;28;20060;-52
2021/11/12 17:08:35;;;;;;;61.13;30.10;;;;;;;9.79;62.41;100315.44;5050095;28;20071;-52
2021/11/12 18:02:04;;;;;;;70.72;35.25;;;;;;;7.90;66.12;100315.25;5049896;28;20064;-53
2021/11/12 18:04:51;;;;;;;69.18;33.05;;;;;;;8.34;64.64;100312.88;5049028;28;20529;-49
2021/11/12 21:46:15;;;;;;;40.95;23.30;;;;;;;4.98;77.21;100334.47;5047125;28;20044;-47
2021/11/12 21:48:42;;;;;;;41.08;22.38;;;;;;;4.82;77.51;100332.53;5048748;28;20060;-48
2021/11/12 21:51:11;;;;;;;42.22;22.85;;;;;;;5.22;75.76;100338.28;5049582;28;20051;-50